»·PEaware :: N1515R KBFL-KMHV

N1515R :: KBFL-KMHV

FLIGHT INFORMATION

Flight Status: Arrived
Operator: Privately registered:
United States
More flights under this callsign
Pilot: Miguel G. (17011)
Aircraft: PIPER PA-28 CHEROKEE ARCHER
(P28A)
More flights by this aircraft type
Origin: KBFL Meadows
United States
Destination: KMHV Mojave
United States
More flights between these airports :: More routes between these airports
Route: +
File this flight plan on PilotEdge
Remarks: CAT6
Altitude:
(Current/Filed)
7,500ft
Speed:
(Current/Filed)
0kts
Departed: 06-Jan-18 09:52 PM
Arrived: 06-Jan-18 10:27 PM
Distance/Time
Traveled:
49nm/0:35
Distance/Time
To Go:
Arrived

Flight Plot

Page will automatically refresh every two minutes.


Map Options




Map Legend


Flown Route
Filed Route
Departure Airport
Arrival Airport
Navaid (VOR, NDB)
Fix

Horizontal Profiles

Position Reports

Time Latitude Longitude Heading Altitude Ground
Speed
06-Jan-18 21:40 35.436907 -119.054864 43 510ft 0kts
06-Jan-18 21:41 35.436909 -119.054861 43 510ft 0kts
06-Jan-18 21:42 35.436912 -119.054857 43 510ft 0kts
06-Jan-18 21:43 35.436916 -119.054852 43 510ft 0kts
06-Jan-18 21:44 35.436102 -119.055171 211 510ft 7kts
06-Jan-18 21:45 35.434210 -119.054385 138 510ft 15kts
06-Jan-18 21:46 35.431486 -119.051104 132 510ft 12kts
06-Jan-18 21:47 35.427488 -119.046265 134 510ft 24kts
06-Jan-18 21:48 35.425940 -119.044817 150 510ft 3kts
06-Jan-18 21:49 35.425265 -119.043980 301 510ft 0kts
06-Jan-18 21:50 35.425283 -119.044018 295 510ft 0kts
06-Jan-18 21:51 35.425287 -119.044030 295 510ft 0kts
06-Jan-18 21:52 35.425293 -119.044043 295 510ft 0kts
06-Jan-18 21:53 35.425318 -119.044110 294 510ft 3kts
06-Jan-18 21:54 35.425392 -119.044649 251 510ft 0kts
06-Jan-18 21:55 35.425391 -119.044651 251 510ft 0kts
06-Jan-18 21:56 35.425537 -119.045618 272 510ft 4kts
06-Jan-18 21:57 35.425727 -119.046410 312 510ft 10kts
06-Jan-18 21:58 35.438352 -119.062481 320 1425ft 80kts
06-Jan-18 21:59 35.448545 -119.042687 98 2757ft 90kts
06-Jan-18 22:00 35.429518 -119.022049 144 4008ft 92kts
06-Jan-18 22:01 35.420587 -118.994291 87 5107ft 100kts
06-Jan-18 22:02 35.416790 -118.959647 123 6126ft 107kts
06-Jan-18 22:03 35.398429 -118.932536 135 7168ft 105kts
06-Jan-18 22:04 35.377667 -118.906882 136 8119ft 99kts
06-Jan-18 22:05 35.353961 -118.879665 161 7344ft 108kts
06-Jan-18 22:06 35.325355 -118.861435 155 7524ft 122kts
06-Jan-18 22:07 35.302626 -118.825031 121 7173ft 105kts
06-Jan-18 22:08 35.288880 -118.789792 113 7591ft 117kts
06-Jan-18 22:09 35.272333 -118.755024 112 7515ft 122kts
06-Jan-18 22:10 35.263835 -118.716125 103 7533ft 116kts
06-Jan-18 22:11 35.250816 -118.678903 110 7504ft 118kts
06-Jan-18 22:12 35.240597 -118.640729 116 7490ft 118kts
06-Jan-18 22:13 35.226983 -118.604565 96 7484ft 118kts
06-Jan-18 22:14 35.221275 -118.568613 135 7418ft 104kts
06-Jan-18 22:15 35.212405 -118.532742 89 7393ft 112kts
06-Jan-18 22:16 35.206635 -118.495107 115 7421ft 119kts
06-Jan-18 22:17 35.181381 -118.473030 153 7449ft 117kts
06-Jan-18 22:18 35.161460 -118.442562 97 7452ft 121kts
06-Jan-18 22:19 35.159954 -118.404095 121 7385ft 120kts
06-Jan-18 22:20 35.148771 -118.373572 111 7442ft 116kts
06-Jan-18 22:21 35.134307 -118.331991 112 6978ft 113kts
06-Jan-18 22:22 35.121229 -118.304856 124 6026ft 114kts
06-Jan-18 22:23 35.104744 -118.267694 113 5548ft 110kts
06-Jan-18 22:24 35.094591 -118.237827 107 5195ft 111kts
06-Jan-18 22:25 35.081388 -118.196846 108 4372ft 119kts
06-Jan-18 22:26 35.078104 -118.165301 99 3783ft 117kts
06-Jan-18 22:27 35.077243 -118.126532 89 3796ft 114kts
06-Jan-18 22:28 35.081367 -118.094981 73 3604ft 121kts
06-Jan-18 22:29 35.074041 -118.067096 200 3293ft 83kts
06-Jan-18 22:30 35.060963 -118.088276 254 3402ft 86kts
06-Jan-18 22:31 35.059060 -118.117517 264 3224ft 95kts
06-Jan-18 22:32 35.059169 -118.142629 268 2826ft 64kts
06-Jan-18 22:33 35.058628 -118.150006 136 2794ft 0kts
06-Jan-18 22:34 35.058627 -118.150005 136 2794ft 0kts
06-Jan-18 22:35 35.058026 -118.149297 140 2794ft 0kts
06-Jan-18 22:36 35.057457 -118.150085 268 2794ft 12kts
06-Jan-18 22:37 35.057498 -118.156391 265 2794ft 0kts
06-Jan-18 22:38 35.057238 -118.160362 189 2794ft 5kts
06-Jan-18 22:39 35.056679 -118.161047 264 2794ft 0kts
06-Jan-18 22:40 35.056679 -118.161048 264 2794ft 0kts

Navigation Log

Ident Type
1. KBFL Airport
2. KMHV Airport